Time,TemperatureF,DewpointF,PressureIn,WindDirection,WindDirectionDegrees,WindSpeedMPH,WindSpeedGustMPH,Humidity,HourlyPrecipIn,Conditions,Clouds,dailyrainin,SolarRadiationWatts/m^2,SoftwareType,DateUTC
2013-03-16 00:00:00,31.1,28.0,29.75,NE,41,10.0,17.0,88,0.00,,SKC,0.00,0.00,VWS V14.01,2013-03-16 05:00:00,
2013-03-16 00:05:00,31.0,28.1,29.75,NE,46,10.0,18.0,89,0.00,,SKC,0.00,0.00,VWS V14.01,2013-03-16 05:05:00,
2013-03-16 00:10:00,31.0,28.1,29.75,NE,42,16.0,19.0,89,0.00,,SKC,0.00,0.00,VWS V14.01,2013-03-16 05:10:00,
2013-03-16 00:15:00,31.0,28.4,29.75,NNE,32,13.0,21.0,90,0.00,,SKC,0.00,0.00,VWS V14.01,2013-03-16 05:15:00,
2013-03-16 00:21:00,30.8,28.2,29.75,NNE,30,13.0,17.0,90,0.00,,SKC,0.00,0.00,VWS V14.01,2013-03-16 05:21:00,
2013-03-16 00:26:00,30.7,28.1,29.75,NNE,24,14.0,21.0,90,0.00,,SKC,0.00,0.00,VWS V14.01,2013-03-16 05:26:00,
2013-03-16 00:31:00,30.6,28.3,29.76,NE,42,16.0,22.0,91,0.00,,SKC,0.00,0.00,VWS V14.01,2013-03-16 05:31:00,
2013-03-16 00:36:00,30.5,28.2,29.76,NE,42,13.0,22.0,91,0.00,,SKC,0.00,0.00,VWS V14.01,2013-03-16 05:36:00,
2013-03-16 00:41:00,30.3,28.0,29.75,NE,46,20.0,27.0,91,0.00,,SKC,0.00,0.00,VWS V14.01,2013-03-16 05:41:00,
2013-03-16 00:46:00,30.2,27.9,29.76,NE,47,16.0,27.0,91,0.00,,SKC,0.00,0.00,VWS V14.01,2013-03-16 05:46:00,
2013-03-16 00:51:00,30.2,27.9,29.75,NE,46,17.0,19.0,91,0.00,,SKC,0.00,0.00,VWS V14.01,2013-03-16 05:51:00,
2013-03-16 00:56:00,30.1,27.8,29.75,NE,45,18.0,19.0,91,0.00,,SKC,0.00,0.00,VWS V14.01,2013-03-16 05:56:00,
2013-03-16 01:01:00,30.1,27.8,29.75,NE,34,21.0,22.0,91,0.00,,SKC,0.00,0.00,VWS V14.01,2013-03-16 06:01:00,
2013-03-16 01:06:00,30.1,27.8,29.74,NE,52,10.0,22.0,91,0.00,,SKC,0.00,0.00,VWS V14.01,2013-03-16 06:06:00,
2013-03-16 01:11:00,29.9,27.9,29.74,ENE,63,17.0,20.0,92,0.00,,SKC,0.00,0.00,VWS V14.01,2013-03-16 06:11:00,
2013-03-16 01:16:00,29.9,27.9,29.74,NNE,18,12.0,22.0,92,0.00,,SKC,0.00,0.00,VWS V14.01,2013-03-16 06:16:00,
2013-03-16 01:21:00,29.9,27.9,29.75,NE,42,13.0,19.0,92,0.00,,SKC,0.00,0.00,VWS V14.01,2013-03-16 06:21:00,
2013-03-16 01:26:00,29.7,27.7,29.75,NE,34,16.0,20.0,92,0.00,,SKC,0.00,0.00,VWS V14.01,2013-03-16 06:26:00,
2013-03-16 01:31:00,29.6,27.6,29.75,ENE,57,10.0,22.0,92,0.00,,SKC,0.00,0.00,VWS V14.01,2013-03-16 06:31:00,
2013-03-16 01:36:00,29.6,27.6,29.75,NE,48,10.0,22.0,92,0.00,,SKC,0.00,0.00,VWS V14.01,2013-03-16 06:36:00,
2013-03-16 01:41:00,29.6,27.6,29.74,ENE,62,7.0,13.0,92,0.00,,SKC,0.00,0.00,VWS V14.01,2013-03-16 06:41:00,
2013-03-16 01:46:00,29.6,27.6,29.75,NNE,25,12.0,17.0,92,0.00,,SKC,0.00,0.00,VWS V14.01,2013-03-16 06:46:00,
2013-03-16 01:51:00,29.5,27.5,29.76,NNE,24,12.0,14.0,92,0.00,,SKC,0.00,0.00,VWS V14.01,2013-03-16 06:51:00,
2013-03-16 01:57:00,29.4,27.4,29.76,NE,52,16.0,22.0,92,0.00,,SKC,0.00,0.00,VWS V14.01,2013-03-16 06:57:00,
2013-03-16 02:02:00,29.5,27.5,29.76,NNE,26,15.0,18.0,92,0.00,,SKC,0.00,0.00,VWS V14.01,2013-03-16 07:02:00,
2013-03-16 02:07:00,29.4,27.4,29.76,NE,49,13.0,19.0,92,0.00,,SKC,0.00,0.00,VWS V14.01,2013-03-16 07:07:00,
2013-03-16 02:12:00,29.4,27.1,29.76,NE,50,16.0,18.0,91,0.00,,SKC,0.00,0.00,VWS V14.01,2013-03-16 07:12:00,
2013-03-16 02:17:00,29.4,27.1,29.75,NE,42,6.0,20.0,91,0.00,,SKC,0.00,0.00,VWS V14.01,2013-03-16 07:17:00,
2013-03-16 02:22:00,29.3,27.0,29.75,NE,41,17.0,19.0,91,0.00,,SKC,0.00,0.00,VWS V14.01,2013-03-16 07:22:00,
2013-03-16 02:27:00,29.2,26.9,29.75,NNE,30,14.0,19.0,91,0.00,,SKC,0.00,0.00,VWS V14.01,2013-03-16 07:27:00,
2013-03-16 02:32:00,29.2,26.9,29.75,NE,55,11.0,17.0,91,0.00,,SKC,0.00,0.00,VWS V14.01,2013-03-16 07:32:00,
2013-03-16 02:37:00,29.1,26.8,29.75,NE,38,13.0,18.0,91,0.00,,SKC,0.00,0.00,VWS V14.01,2013-03-16 07:37:00,
2013-03-16 02:42:00,29.1,26.8,29.75,ENE,57,20.0,21.0,91,0.00,,SKC,0.00,0.00,VWS V14.01,2013-03-16 07:42:00,
2013-03-16 02:47:00,29.0,26.7,29.75,NNE,18,13.0,21.0,91,0.00,,SKC,0.00,0.00,VWS V14.01,2013-03-16 07:47:00,
2013-03-16 02:52:00,29.0,26.7,29.75,NNE,26,17.0,23.0,91,0.00,,SKC,0.00,0.00,VWS V14.01,2013-03-16 07:52:00,
2013-03-16 02:57:00,28.8,26.5,29.75,NNE,23,20.0,25.0,91,0.00,,SKC,0.00,0.00,VWS V14.01,2013-03-16 07:57:00,
2013-03-16 03:02:00,28.7,26.4,29.75,NNE,20,13.0,25.0,91,0.00,,SKC,0.00,0.00,VWS V14.01,2013-03-16 08:02:00,
2013-03-16 03:07:00,28.6,26.3,29.75,NNW,335,5.0,25.0,91,0.00,,SKC,0.00,0.00,VWS V14.01,2013-03-16 08:07:00,
2013-03-16 03:12:00,28.6,26.3,29.74,NE,52,12.0,14.0,91,0.00,,SKC,0.00,0.00,VWS V14.01,2013-03-16 08:12:00,
2013-03-16 03:17:00,28.5,26.2,29.74,NNE,33,29.0,29.0,91,0.00,,SKC,0.00,0.00,VWS V14.01,2013-03-16 08:17:00,
2013-03-16 03:22:00,28.5,26.0,29.74,ENE,63,13.0,15.0,90,0.00,,SKC,0.00,0.00,VWS V14.01,2013-03-16 08:22:00,
2013-03-16 03:27:00,28.6,26.0,29.74,NE,34,14.0,23.0,90,0.00,,SKC,0.00,0.00,VWS V14.01,2013-03-16 08:27:00,
2013-03-16 03:32:00,28.6,26.0,29.74,NNE,24,10.0,20.0,90,0.00,,SKC,0.00,0.00,VWS V14.01,2013-03-16 08:32:00,
2013-03-16 03:37:00,28.6,26.0,29.74,NNE,19,13.0,20.0,90,0.00,,SKC,0.00,0.00,VWS V14.01,2013-03-16 08:37:00,
2013-03-16 03:42:00,28.6,26.0,29.74,NNE,23,10.0,17.0,90,0.00,,SKC,0.00,0.00,VWS V14.01,2013-03-16 08:42:00,
2013-03-16 03:47:00,28.6,26.0,29.75,NNE,24,13.0,17.0,90,0.00,,SKC,0.00,0.00,VWS V14.01,2013-03-16 08:47:00,
2013-03-16 03:52:00,28.7,26.1,29.75,NNE,13,12.0,16.0,90,0.00,,SKC,0.00,0.00,VWS V14.01,2013-03-16 08:52:00,
2013-03-16 03:57:00,28.8,26.2,29.75,NE,46,16.0,19.0,90,0.00,,SKC,0.00,0.00,VWS V14.01,2013-03-16 08:57:00,
2013-03-16 04:02:00,28.7,26.1,29.75,NNE,26,16.0,22.0,90,0.00,,SKC,0.00,0.00,VWS V14.01,2013-03-16 09:02:00,
2013-03-16 04:07:00,28.7,26.4,29.75,NNE,30,11.0,23.0,91,0.00,,SKC,0.00,0.00,VWS V14.01,2013-03-16 09:07:00,
2013-03-16 04:12:00,28.6,26.3,29.74,NNE,26,9.0,18.0,91,0.00,,SKC,0.00,0.00,VWS V14.01,2013-03-16 09:12:00,
2013-03-16 04:17:00,28.5,26.2,29.74,NNE,31,12.0,18.0,91,0.00,,SKC,0.00,0.00,VWS V14.01,2013-03-16 09:17:00,
2013-03-16 04:22:00,28.5,26.2,29.74,NNE,33,11.0,17.0,91,0.00,,SKC,0.00,0.00,VWS V14.01,2013-03-16 09:22:00,
2013-03-16 04:27:00,28.4,26.4,29.74,ENE,58,7.0,19.0,92,0.00,,SKC,0.00,0.00,VWS V14.01,2013-03-16 09:27:00,
2013-03-16 04:32:00,28.3,26.3,29.74,NNE,21,15.0,23.0,92,0.00,,SKC,0.00,0.00,VWS V14.01,2013-03-16 09:32:00,
2013-03-16 04:37:00,28.3,26.3,29.75,NNE,30,12.0,23.0,92,0.00,,SKC,0.00,0.00,VWS V14.01,2013-03-16 09:37:00,
2013-03-16 04:43:00,28.3,26.3,29.74,NE,35,10.0,16.0,92,0.00,,SKC,0.00,0.00,VWS V14.01,2013-03-16 09:43:00,
2013-03-16 04:48:00,28.3,26.3,29.74,NE,34,13.0,18.0,92,0.00,,SKC,0.00,0.00,VWS V14.01,2013-03-16 09:48:00,
2013-03-16 04:53:00,28.2,26.2,29.75,NNE,16,10.0,16.0,92,0.00,,SKC,0.00,0.00,VWS V14.01,2013-03-16 09:53:00,
2013-03-16 04:58:00,28.2,26.2,29.75,NE,56,13.0,21.0,92,0.00,,SKC,0.00,0.00,VWS V14.01,2013-03-16 09:58:00,
2013-03-16 05:03:00,28.0,26.0,29.75,NNE,24,13.0,21.0,92,0.00,,SKC,0.00,0.00,VWS V14.01,2013-03-16 10:03:00,
2013-03-16 05:08:00,27.9,25.9,29.75,NNE,24,14.0,22.0,92,0.00,,SKC,0.00,0.00,VWS V14.01,2013-03-16 10:08:00,
2013-03-16 05:13:00,27.9,26.1,29.75,North,11,9.0,16.0,93,0.00,,SKC,0.00,0.00,VWS V14.01,2013-03-16 10:13:00,
2013-03-16 05:18:00,27.8,26.0,29.75,NNE,17,16.0,20.0,93,0.00,,SKC,0.00,0.00,VWS V14.01,2013-03-16 10:18:00,
2013-03-16 05:23:00,27.7,25.9,29.76,NE,36,13.0,18.0,93,0.00,,SKC,0.00,0.00,VWS V14.01,2013-03-16 10:23:00,
2013-03-16 05:28:00,27.6,25.8,29.76,NNE,25,14.0,18.0,93,0.00,,SKC,0.00,0.00,VWS V14.01,2013-03-16 10:28:00,
2013-03-16 05:33:00,27.6,25.8,29.77,NE,34,16.0,18.0,93,0.00,,SKC,0.00,0.00,VWS V14.01,2013-03-16 10:33:00,
2013-03-16 05:38:00,27.5,25.8,29.77,North,360,13.0,18.0,93,0.00,,SKC,0.00,0.00,VWS V14.01,2013-03-16 10:38:00,
2013-03-16 05:43:00,27.5,25.8,29.77,NNE,22,10.0,18.0,93,0.00,,SKC,0.00,0.00,VWS V14.01,2013-03-16 10:43:00,
2013-03-16 05:48:00,27.5,25.8,29.77,NNE,26,9.0,18.0,93,0.00,,SKC,0.00,0.00,VWS V14.01,2013-03-16 10:48:00,
2013-03-16 05:53:00,27.5,25.8,29.77,North,5,13.0,18.0,93,0.00,,SKC,0.00,0.00,VWS V14.01,2013-03-16 10:53:00,
2013-03-16 05:58:00,27.5,25.8,29.77,North,11,10.0,18.0,93,0.00,,SKC,0.00,0.00,VWS V14.01,2013-03-16 10:58:00,
2013-03-16 06:03:00,27.6,25.8,29.78,NNE,26,11.0,15.0,93,0.00,,SKC,0.00,0.00,VWS V14.01,2013-03-16 11:03:00,
2013-03-16 06:08:00,27.6,25.6,29.78,NNE,15,9.0,18.0,92,0.00,,SKC,0.00,0.00,VWS V14.01,2013-03-16 11:08:00,
2013-03-16 06:13:00,27.7,25.7,29.78,NNE,26,13.0,16.0,92,0.00,,SKC,0.00,0.00,VWS V14.01,2013-03-16 11:13:00,
2013-03-16 06:18:00,27.7,25.7,29.78,NNE,23,11.0,18.0,92,0.00,,SKC,0.00,0.00,VWS V14.01,2013-03-16 11:18:00,
2013-03-16 06:23:00,27.7,25.7,29.79,NE,35,14.0,14.0,92,0.00,,SKC,0.00,0.00,VWS V14.01,2013-03-16 11:23:00,
2013-03-16 06:28:00,27.7,25.7,29.79,North,355,5.0,16.0,92,0.00,,SKC,0.00,0.00,VWS V14.01,2013-03-16 11:28:00,
2013-03-16 06:33:00,27.7,25.7,29.79,NNE,25,11.0,16.0,92,0.00,,SKC,0.00,0.00,VWS V14.01,2013-03-16 11:33:00,
2013-03-16 06:38:00,27.7,25.9,29.79,NNE,22,12.0,16.0,93,0.00,,SKC,0.00,0.00,VWS V14.01,2013-03-16 11:38:00,
2013-03-16 06:43:00,27.6,25.8,29.79,NNE,23,12.0,16.0,93,0.00,,SKC,0.00,0.00,VWS V14.01,2013-03-16 11:43:00,
2013-03-16 06:48:00,27.5,25.8,29.79,NNE,22,8.0,16.0,93,0.00,,SKC,0.00,0.00,VWS V14.01,2013-03-16 11:48:00,
2013-03-16 06:53:00,27.5,25.8,29.80,NNE,28,13.0,18.0,93,0.00,,SKC,0.00,0.00,VWS V14.01,2013-03-16 11:53:00,
2013-03-16 06:58:00,27.6,25.6,29.80,NNW,346,8.0,18.0,92,0.00,,SKC,0.00,0.00,VWS V14.01,2013-03-16 11:58:00,
2013-03-16 07:03:00,27.6,25.6,29.81,NNE,18,10.0,18.0,92,0.00,,SKC,0.00,0.00,VWS V14.01,2013-03-16 12:03:00,
2013-03-16 07:08:00,27.5,25.5,29.81,NNE,13,14.0,20.0,92,0.00,,SKC,0.00,0.00,VWS V14.01,2013-03-16 12:08:00,
2013-03-16 07:13:00,27.5,25.5,29.81,NE,44,9.0,21.0,92,0.00,,SKC,0.00,0.00,VWS V14.01,2013-03-16 12:13:00,
2013-03-16 07:18:00,27.4,25.4,29.81,NNE,30,16.0,21.0,92,0.00,,SKC,0.00,0.00,VWS V14.01,2013-03-16 12:18:00,
2013-03-16 07:23:00,27.3,25.3,29.81,NE,39,11.0,17.0,92,0.00,,SKC,0.00,5.00,VWS V14.01,2013-03-16 12:23:00,
2013-03-16 07:29:00,27.1,25.1,29.81,NNE,33,18.0,20.0,92,0.00,,SKC,0.00,9.00,VWS V14.01,2013-03-16 12:29:00,
2013-03-16 07:34:00,27.0,25.0,29.81,North,351,13.0,20.0,92,0.00,,SKC,0.00,11.00,VWS V14.01,2013-03-16 12:34:00,
2013-03-16 07:39:00,27.0,25.0,29.82,North,5,17.0,20.0,92,0.00,,SKC,0.00,16.00,VWS V14.01,2013-03-16 12:39:00,
2013-03-16 07:44:00,27.1,25.1,29.82,North,360,15.0,19.0,92,0.00,,SKC,0.00,14.00,VWS V14.01,2013-03-16 12:44:00,
2013-03-16 07:49:00,27.1,25.1,29.82,North,5,10.0,19.0,92,0.00,,SKC,0.00,16.00,VWS V14.01,2013-03-16 12:49:00,
2013-03-16 07:54:00,27.1,25.1,29.83,NE,37,17.0,17.0,92,0.00,,SKC,0.00,21.00,VWS V14.01,2013-03-16 12:54:00,
2013-03-16 07:59:00,27.1,25.1,29.83,NNE,15,11.0,18.0,92,0.00,,SKC,0.00,21.00,VWS V14.01,2013-03-16 12:59:00,
2013-03-16 08:04:00,27.1,25.1,29.83,NNE,13,14.0,15.0,92,0.00,,SKC,0.00,25.00,VWS V14.01,2013-03-16 13:04:00,
2013-03-16 08:09:00,26.9,24.9,29.83,NNE,19,9.0,16.0,92,0.00,,SKC,0.00,28.00,VWS V14.01,2013-03-16 13:09:00,
2013-03-16 08:14:00,27.0,25.2,29.84,NNE,15,9.0,14.0,93,0.00,,SKC,0.00,33.00,VWS V14.01,2013-03-16 13:14:00,
2013-03-16 08:19:00,26.9,25.1,29.84,NNE,13,14.0,17.0,93,0.00,,SKC,0.00,35.00,VWS V14.01,2013-03-16 13:19:00,
2013-03-16 08:24:00,26.8,25.0,29.84,North,5,11.0,16.0,93,0.00,,SKC,0.00,35.00,VWS V14.01,2013-03-16 13:24:00,
2013-03-16 08:29:00,26.8,25.0,29.85,North,10,11.0,16.0,93,0.00,,SKC,0.00,47.00,VWS V14.01,2013-03-16 13:29:00,
2013-03-16 08:34:00,26.8,25.0,29.85,North,9,8.0,13.0,93,0.00,,SKC,0.00,49.00,VWS V14.01,2013-03-16 13:34:00,
2013-03-16 08:39:00,26.7,24.7,29.85,NE,38,11.0,20.0,92,0.00,,SKC,0.00,62.00,VWS V14.01,2013-03-16 13:39:00,
2013-03-16 08:44:00,26.8,24.8,29.86,North,5,12.0,22.0,92,0.00,,SKC,0.00,58.00,VWS V14.01,2013-03-16 13:44:00,
2013-03-16 08:49:00,26.8,24.8,29.86,NNE,15,15.0,22.0,92,0.00,,SKC,0.00,69.00,VWS V14.01,2013-03-16 13:49:00,
2013-03-16 08:54:00,26.8,24.5,29.86,NE,34,17.0,17.0,91,0.00,,SKC,0.00,67.00,VWS V14.01,2013-03-16 13:54:00,
2013-03-16 08:59:00,26.6,24.3,29.86,North,355,17.0,20.0,91,0.00,,SKC,0.00,58.00,VWS V14.01,2013-03-16 13:59:00,
2013-03-16 09:04:00,26.0,23.7,29.86,NNE,16,14.0,21.0,91,0.00,,SKC,0.00,77.00,VWS V14.01,2013-03-16 14:04:00,
2013-03-16 09:09:00,25.7,23.4,29.86,NNE,17,16.0,21.0,91,0.00,,SKC,0.00,88.00,VWS V14.01,2013-03-16 14:09:00,
2013-03-16 09:14:00,25.5,23.5,29.86,North,351,9.0,20.0,92,0.00,,SKC,0.00,93.00,VWS V14.01,2013-03-16 14:14:00,
2013-03-16 09:19:00,25.6,23.6,29.86,North,9,11.0,20.0,92,0.00,,SKC,0.00,116.00,VWS V14.01,2013-03-16 14:19:00,
2013-03-16 09:24:00,25.5,23.5,29.87,North,9,11.0,19.0,92,0.00,,SKC,0.00,102.00,VWS V14.01,2013-03-16 14:24:00,
2013-03-16 09:29:00,25.3,23.0,29.87,NE,50,11.0,22.0,91,0.00,,SKC,0.00,107.00,VWS V14.01,2013-03-16 14:29:00,
2013-03-16 09:34:00,25.4,23.4,29.88,NNE,32,16.0,18.0,92,0.00,,SKC,0.00,105.00,VWS V14.01,2013-03-16 14:34:00,
2013-03-16 09:39:00,25.3,23.0,29.88,NNE,18,16.0,20.0,91,0.00,,SKC,0.00,120.00,VWS V14.01,2013-03-16 14:39:00,
2013-03-16 09:44:00,25.4,23.1,29.89,North,355,10.0,15.0,91,0.00,,SKC,0.00,113.00,VWS V14.01,2013-03-16 14:44:00,
2013-03-16 09:49:00,25.5,23.2,29.89,North,5,9.0,15.0,91,0.00,,SKC,0.00,105.00,VWS V14.01,2013-03-16 14:49:00,
2013-03-16 09:54:00,25.5,23.2,29.90,NNE,24,8.0,17.0,91,0.00,,SKC,0.00,100.00,VWS V14.01,2013-03-16 14:54:00,
2013-03-16 09:59:00,25.4,23.1,29.91,North,5,6.0,17.0,91,0.00,,SKC,0.00,98.00,VWS V14.01,2013-03-16 14:59:00,
2013-03-16 10:04:00,25.4,23.1,29.91,North,355,10.0,12.0,91,0.00,,SKC,0.00,97.00,VWS V14.01,2013-03-16 15:04:00,
2013-03-16 10:09:00,25.5,23.2,29.92,NNW,331,11.0,15.0,91,0.00,,SKC,0.00,81.00,VWS V14.01,2013-03-16 15:09:00,
2013-03-16 10:14:00,25.4,22.9,29.92,North,351,12.0,15.0,90,0.00,,SKC,0.00,93.00,VWS V14.01,2013-03-16 15:14:00,
2013-03-16 10:19:00,25.5,23.0,29.93,North,355,6.0,15.0,90,0.00,,SKC,0.00,93.00,VWS V14.01,2013-03-16 15:19:00,
2013-03-16 10:24:00,25.4,22.9,29.93,NNW,331,9.0,11.0,90,0.00,,SKC,0.00,104.00,VWS V14.01,2013-03-16 15:24:00,
2013-03-16 10:29:00,24.9,22.4,29.93,NNW,338,11.0,14.0,90,0.00,,SKC,0.00,105.00,VWS V14.01,2013-03-16 15:29:00,
2013-03-16 10:34:00,25.1,22.6,29.93,NNW,333,9.0,12.0,90,0.00,,SKC,0.00,111.00,VWS V14.01,2013-03-16 15:34:00,
2013-03-16 10:39:00,25.0,22.5,29.93,NW,326,7.0,12.0,90,0.00,,SKC,0.00,123.00,VWS V14.01,2013-03-16 15:39:00,
2013-03-16 10:44:00,24.8,22.3,29.93,North,360,8.0,13.0,90,0.00,,SKC,0.00,142.00,VWS V14.01,2013-03-16 15:44:00,
2013-03-16 10:49:00,24.9,22.1,29.93,NNW,340,7.0,13.0,89,0.00,,SKC,0.00,155.00,VWS V14.01,2013-03-16 15:49:00,
2013-03-16 10:54:00,24.8,22.0,29.93,North,360,7.0,11.0,89,0.00,,SKC,0.00,156.00,VWS V14.01,2013-03-16 15:54:00,
2013-03-16 10:59:00,24.8,22.0,29.94,NNW,344,10.0,12.0,89,0.00,,SKC,0.00,183.00,VWS V14.01,2013-03-16 15:59:00,
2013-03-16 11:04:00,24.6,21.8,29.94,NNW,344,11.0,14.0,89,0.00,,SKC,0.00,190.00,VWS V14.01,2013-03-16 16:04:00,
2013-03-16 11:09:00,24.5,21.7,29.94,NW,313,11.0,14.0,89,0.00,,SKC,0.00,192.00,VWS V14.01,2013-03-16 16:09:00,
2013-03-16 11:14:00,24.6,21.8,29.94,NNW,333,8.0,13.0,89,0.00,,SKC,0.00,202.00,VWS V14.01,2013-03-16 16:14:00,
2013-03-16 11:19:00,24.6,21.6,29.95,NW,325,14.0,14.0,88,0.00,,SKC,0.00,204.00,VWS V14.01,2013-03-16 16:19:00,
2013-03-16 11:24:00,24.7,21.7,29.95,NNW,346,8.0,14.0,88,0.00,,SKC,0.00,214.00,VWS V14.01,2013-03-16 16:24:00,
2013-03-16 11:29:00,24.8,21.8,29.95,NNW,327,8.0,14.0,88,0.00,,SKC,0.00,225.00,VWS V14.01,2013-03-16 16:29:00,
2013-03-16 11:34:00,24.8,21.8,29.96,NNW,328,10.0,11.0,88,0.00,,SKC,0.00,234.00,VWS V14.01,2013-03-16 16:34:00,
2013-03-16 11:39:00,25.0,22.0,29.96,NW,324,12.0,14.0,88,0.00,,SKC,0.00,234.00,VWS V14.01,2013-03-16 16:39:00,
2013-03-16 11:44:00,25.0,22.0,29.96,North,9,10.0,15.0,88,0.00,,SKC,0.00,243.00,VWS V14.01,2013-03-16 16:44:00,
2013-03-16 11:49:00,25.1,21.8,29.96,North,5,8.0,15.0,87,0.00,,SKC,0.00,299.00,VWS V14.01,2013-03-16 16:49:00,
2013-03-16 11:55:00,25.2,21.9,29.96,NNW,335,9.0,11.0,87,0.00,,SKC,0.00,308.00,VWS V14.01,2013-03-16 16:55:00,
2013-03-16 12:00:00,25.1,21.8,29.96,North,355,9.0,13.0,87,0.00,,SKC,0.00,285.00,VWS V14.01,2013-03-16 17:00:00,
2013-03-16 12:05:00,25.1,21.8,29.97,NNW,342,7.0,12.0,87,0.00,,SKC,0.00,276.00,VWS V14.01,2013-03-16 17:05:00,
2013-03-16 12:10:00,25.1,21.5,29.97,NW,320,9.0,12.0,86,0.00,,SKC,0.00,288.00,VWS V14.01,2013-03-16 17:10:00,
2013-03-16 12:15:00,25.1,21.8,29.97,NW,314,9.0,15.0,87,0.00,,SKC,0.00,320.00,VWS V14.01,2013-03-16 17:15:00,
2013-03-16 12:20:00,25.3,21.7,29.97,North,355,12.0,15.0,86,0.00,,SKC,0.00,346.00,VWS V14.01,2013-03-16 17:20:00,
2013-03-16 12:25:00,25.4,21.8,29.97,North,5,9.0,14.0,86,0.00,,SKC,0.00,352.00,VWS V14.01,2013-03-16 17:25:00,
2013-03-16 12:30:00,25.6,22.0,29.97,NNW,331,12.0,14.0,86,0.00,,SKC,0.00,360.00,VWS V14.01,2013-03-16 17:30:00,
2013-03-16 12:35:00,25.9,22.3,29.97,North,351,7.0,12.0,86,0.00,,SKC,0.00,366.00,VWS V14.01,2013-03-16 17:35:00,
2013-03-16 12:40:00,26.1,22.2,29.97,North,350,11.0,13.0,85,0.00,,SKC,0.00,397.00,VWS V14.01,2013-03-16 17:40:00,
2013-03-16 12:45:00,26.1,22.5,29.97,North,5,5.0,16.0,86,0.00,,SKC,0.00,457.00,VWS V14.01,2013-03-16 17:45:00,
2013-03-16 12:50:00,26.4,22.5,29.97,NNW,327,6.0,16.0,85,0.00,,SKC,0.00,439.00,VWS V14.01,2013-03-16 17:50:00,
2013-03-16 12:55:00,26.2,22.0,29.97,NNW,327,7.0,12.0,84,0.00,,SKC,0.00,476.00,VWS V14.01,2013-03-16 17:55:00,
2013-03-16 13:00:00,26.4,22.2,29.97,NW,326,4.0,12.0,84,0.00,,SKC,0.00,478.00,VWS V14.01,2013-03-16 18:00:00,
2013-03-16 13:05:00,26.2,21.8,29.97,NW,315,9.0,11.0,83,0.00,,SKC,0.00,510.00,VWS V14.01,2013-03-16 18:05:00,
2013-03-16 13:10:00,26.4,22.2,29.98,NW,319,5.0,12.0,84,0.00,,SKC,0.00,540.00,VWS V14.01,2013-03-16 18:10:00,
2013-03-16 13:15:00,27.2,23.3,29.98,NW,317,8.0,11.0,85,0.00,,SKC,0.00,884.00,VWS V14.01,2013-03-16 18:15:00,
2013-03-16 13:20:00,27.1,22.6,29.98,NW,319,9.0,9.0,83,0.00,,SKC,0.00,497.00,VWS V14.01,2013-03-16 18:20:00,
2013-03-16 13:25:00,27.4,23.2,29.98,NNE,13,6.0,13.0,84,0.00,,SKC,0.00,482.00,VWS V14.01,2013-03-16 18:25:00,
2013-03-16 13:30:00,27.8,23.3,29.97,NW,315,9.0,9.0,83,0.00,,SKC,0.00,631.00,VWS V14.01,2013-03-16 18:30:00,
2013-03-16 13:35:00,27.7,22.9,29.97,NNW,342,9.0,12.0,82,0.00,,SKC,0.00,722.00,VWS V14.01,2013-03-16 18:35:00,
2013-03-16 13:40:00,28.2,23.7,29.97,North,360,7.0,11.0,83,0.00,,SKC,0.00,555.00,VWS V14.01,2013-03-16 18:40:00,
2013-03-16 13:45:00,28.6,23.8,29.97,NNE,19,7.0,13.0,82,0.00,,SKC,0.00,812.00,VWS V14.01,2013-03-16 18:45:00,
2013-03-16 13:50:00,28.6,23.5,29.97,North,360,2.0,6.0,81,0.00,,SKC,0.00,919.00,VWS V14.01,2013-03-16 18:50:00,
2013-03-16 13:55:00,29.5,24.4,29.96,NNW,343,7.0,12.0,81,0.00,,SKC,0.00,436.00,VWS V14.01,2013-03-16 18:55:00,
2013-03-16 14:00:00,29.7,24.3,29.97,NE,42,6.0,7.0,80,0.00,,SKC,0.00,810.00,VWS V14.01,2013-03-16 19:00:00,
2013-03-16 14:05:00,29.8,24.1,29.96,NE,38,0.0,7.0,79,0.00,,SKC,0.00,1005.00,VWS V14.01,2013-03-16 19:05:00,
2013-03-16 14:10:00,30.4,24.4,29.96,NNE,14,3.0,8.0,78,0.00,,SKC,0.00,615.00,VWS V14.01,2013-03-16 19:10:00,
2013-03-16 14:15:00,30.8,24.5,29.96,NNE,29,8.0,8.0,77,0.00,,SKC,0.00,462.00,VWS V14.01,2013-03-16 19:15:00,
2013-03-16 14:20:00,31.0,25.0,29.96,NNE,30,4.0,5.0,78,0.00,,SKC,0.00,436.00,VWS V14.01,2013-03-16 19:20:00,
2013-03-16 14:25:00,30.7,24.0,29.96,NNE,33,7.0,10.0,76,0.00,,SKC,0.00,503.00,VWS V14.01,2013-03-16 19:25:00,
2013-03-16 14:30:00,30.5,23.9,29.96,NNE,17,8.0,8.0,76,0.00,,SKC,0.00,355.00,VWS V14.01,2013-03-16 19:30:00,
2013-03-16 14:35:00,30.6,24.0,29.95,NNE,16,3.0,12.0,76,0.00,,SKC,0.00,793.00,VWS V14.01,2013-03-16 19:35:00,
2013-03-16 14:40:00,30.8,24.1,29.95,NW,315,4.0,7.0,76,0.00,,SKC,0.00,538.00,VWS V14.01,2013-03-16 19:40:00,
2013-03-16 14:45:00,30.8,23.8,29.96,NW,311,12.0,12.0,75,0.00,,SKC,0.00,582.00,VWS V14.01,2013-03-16 19:45:00,
2013-03-16 14:50:00,30.7,23.4,29.96,NW,309,8.0,10.0,74,0.00,,SKC,0.00,766.00,VWS V14.01,2013-03-16 19:50:00,
2013-03-16 14:55:00,31.0,24.0,29.96,NW,322,9.0,12.0,75,0.00,,SKC,0.00,744.00,VWS V14.01,2013-03-16 19:55:00,
2013-03-16 15:00:00,30.9,23.3,29.96,NW,315,9.0,12.0,73,0.00,,SKC,0.00,737.00,VWS V14.01,2013-03-16 20:00:00,
2013-03-16 15:06:00,30.9,23.6,29.96,North,5,12.0,13.0,74,0.00,,SKC,0.00,714.00,VWS V14.01,2013-03-16 20:06:00,
2013-03-16 15:11:00,31.1,23.1,29.96,NW,311,8.0,13.0,72,0.00,,SKC,0.00,701.00,VWS V14.01,2013-03-16 20:11:00,
2013-03-16 15:16:00,30.9,23.0,29.97,North,350,10.0,13.0,72,0.00,,SKC,0.00,698.00,VWS V14.01,2013-03-16 20:16:00,
2013-03-16 15:21:00,31.4,23.4,29.97,NNE,15,7.0,15.0,72,0.00,,SKC,0.00,726.00,VWS V14.01,2013-03-16 20:21:00,
2013-03-16 15:26:00,31.0,22.4,29.97,NNW,329,9.0,15.0,70,0.00,,SKC,0.00,677.00,VWS V14.01,2013-03-16 20:26:00,
2013-03-16 15:31:00,31.2,22.9,29.97,NNW,328,9.0,11.0,71,0.00,,SKC,0.00,671.00,VWS V14.01,2013-03-16 20:31:00,
2013-03-16 15:36:00,30.8,22.2,29.97,WNW,294,11.0,14.0,70,0.00,,SKC,0.00,656.00,VWS V14.01,2013-03-16 20:36:00,
2013-03-16 15:41:00,31.0,22.4,29.97,NNE,22,6.0,9.0,70,0.00,,SKC,0.00,633.00,VWS V14.01,2013-03-16 20:41:00,
2013-03-16 15:46:00,31.4,22.8,29.98,NW,315,13.0,15.0,70,0.00,,SKC,0.00,626.00,VWS V14.01,2013-03-16 20:46:00,
2013-03-16 15:51:00,31.0,22.0,29.98,NW,317,9.0,13.0,69,0.00,,SKC,0.00,552.00,VWS V14.01,2013-03-16 20:51:00,
2013-03-16 15:56:00,30.5,21.9,29.98,NW,317,8.0,13.0,70,0.00,,SKC,0.00,148.00,VWS V14.01,2013-03-16 20:56:00,
2013-03-16 16:02:00,31.1,22.8,29.97,North,350,8.0,12.0,71,0.00,,SKC,0.00,287.00,VWS V14.01,2013-03-16 21:02:00,
2013-03-16 16:07:00,31.4,22.8,29.97,NNW,336,5.0,12.0,70,0.00,,SKC,0.00,566.00,VWS V14.01,2013-03-16 21:07:00,
2013-03-16 16:12:00,31.2,22.6,29.97,North,350,9.0,14.0,70,0.00,,SKC,0.00,555.00,VWS V14.01,2013-03-16 21:12:00,
2013-03-16 16:17:00,31.2,22.6,29.97,North,355,11.0,14.0,70,0.00,,SKC,0.00,524.00,VWS V14.01,2013-03-16 21:17:00,
2013-03-16 16:22:00,31.3,22.7,29.97,NNW,334,10.0,15.0,70,0.00,,SKC,0.00,517.00,VWS V14.01,2013-03-16 21:22:00,
2013-03-16 16:27:00,31.4,22.8,29.97,NW,325,8.0,15.0,70,0.00,,SKC,0.00,490.00,VWS V14.01,2013-03-16 21:27:00,
2013-03-16 16:32:00,31.3,22.3,29.97,NNW,328,9.0,11.0,69,0.00,,SKC,0.00,471.00,VWS V14.01,2013-03-16 21:32:00,
2013-03-16 16:37:00,30.9,21.9,29.98,NW,318,8.0,13.0,69,0.00,,SKC,0.00,455.00,VWS V14.01,2013-03-16 21:37:00,
2013-03-16 16:42:00,30.8,22.2,29.98,NNW,338,7.0,10.0,70,0.00,,SKC,0.00,446.00,VWS V14.01,2013-03-16 21:42:00,
2013-03-16 16:48:00,31.1,22.1,29.98,NNW,338,5.0,13.0,69,0.00,,SKC,0.00,420.00,VWS V14.01,2013-03-16 21:48:00,
2013-03-16 16:53:00,31.0,22.0,29.98,NW,309,9.0,13.0,69,0.00,,SKC,0.00,413.00,VWS V14.01,2013-03-16 21:53:00,
2013-03-16 16:58:00,30.9,21.9,29.98,NNW,348,9.0,14.0,69,0.00,,SKC,0.00,390.00,VWS V14.01,2013-03-16 21:58:00,
2013-03-16 17:03:00,31.0,22.0,29.98,NNW,344,9.0,11.0,69,0.00,,SKC,0.00,374.00,VWS V14.01,2013-03-16 22:03:00,
2013-03-16 17:08:00,31.2,21.5,29.98,North,355,10.0,15.0,67,0.00,,SKC,0.00,359.00,VWS V14.01,2013-03-16 22:08:00,
2013-03-16 17:13:00,31.0,21.3,29.98,North,355,10.0,13.0,67,0.00,,SKC,0.00,355.00,VWS V14.01,2013-03-16 22:13:00,
2013-03-16 17:18:00,31.2,21.5,29.98,North,9,6.0,13.0,67,0.00,,SKC,0.00,345.00,VWS V14.01,2013-03-16 22:18:00,
2013-03-16 17:23:00,31.2,21.5,29.98,North,5,7.0,15.0,67,0.00,,SKC,0.00,334.00,VWS V14.01,2013-03-16 22:23:00,
2013-03-16 17:28:00,31.1,21.1,29.98,NNE,14,6.0,15.0,66,0.00,,SKC,0.00,318.00,VWS V14.01,2013-03-16 22:28:00,
2013-03-16 17:33:00,30.8,21.1,29.98,NNW,348,13.0,13.0,67,0.00,,SKC,0.00,290.00,VWS V14.01,2013-03-16 22:33:00,
2013-03-16 17:38:00,30.7,21.4,29.98,NNW,342,10.0,14.0,68,0.00,,SKC,0.00,279.00,VWS V14.01,2013-03-16 22:38:00,
2013-03-16 17:43:00,30.8,21.5,29.99,NNE,23,7.0,13.0,68,0.00,,SKC,0.00,267.00,VWS V14.01,2013-03-16 22:43:00,
2013-03-16 17:48:00,30.8,21.1,29.99,NNE,18,6.0,13.0,67,0.00,,SKC,0.00,239.00,VWS V14.01,2013-03-16 22:48:00,
2013-03-16 17:53:00,30.7,21.1,29.98,North,360,9.0,10.0,67,0.00,,SKC,0.00,207.00,VWS V14.01,2013-03-16 22:53:00,
2013-03-16 17:58:00,30.2,20.2,29.99,NNW,344,6.0,12.0,66,0.00,,SKC,0.00,181.00,VWS V14.01,2013-03-16 22:58:00,
2013-03-16 18:03:00,30.1,20.5,29.99,NNW,348,8.0,10.0,67,0.00,,SKC,0.00,77.00,VWS V14.01,2013-03-16 23:03:00,
2013-03-16 18:08:00,29.8,20.2,29.99,North,355,6.0,13.0,67,0.00,,SKC,0.00,125.00,VWS V14.01,2013-03-16 23:08:00,
2013-03-16 18:13:00,29.8,20.2,29.99,NNW,342,6.0,9.0,67,0.00,,SKC,0.00,104.00,VWS V14.01,2013-03-16 23:13:00,
2013-03-16 18:18:00,29.6,20.0,29.99,NNW,340,6.0,9.0,67,0.00,,SKC,0.00,39.00,VWS V14.01,2013-03-16 23:18:00,
2013-03-16 18:23:00,29.3,20.1,30.00,North,350,4.0,10.0,68,0.00,,SKC,0.00,69.00,VWS V14.01,2013-03-16 23:23:00,
2013-03-16 18:28:00,29.4,20.5,30.00,North,350,5.0,10.0,69,0.00,,SKC,0.00,54.00,VWS V14.01,2013-03-16 23:28:00,
2013-03-16 18:33:00,29.2,20.0,30.00,NW,323,5.0,7.0,68,0.00,,SKC,0.00,26.00,VWS V14.01,2013-03-16 23:33:00,
2013-03-16 18:38:00,29.0,20.1,30.00,North,350,4.0,9.0,69,0.00,,SKC,0.00,18.00,VWS V14.01,2013-03-16 23:38:00,
2013-03-16 18:43:00,29.0,20.5,30.00,North,351,5.0,7.0,70,0.00,,SKC,0.00,12.00,VWS V14.01,2013-03-16 23:43:00,
2013-03-16 18:48:00,29.0,20.8,30.01,WNW,291,6.0,9.0,71,0.00,,SKC,0.00,7.00,VWS V14.01,2013-03-16 23:48:00,
2013-03-16 18:53:00,28.8,20.6,30.01,WNW,299,5.0,12.0,71,0.00,,SKC,0.00,5.00,VWS V14.01,2013-03-16 23:53:00,
2013-03-16 18:58:00,28.5,20.6,30.01,WNW,294,8.0,12.0,72,0.00,,SKC,0.00,0.00,VWS V14.01,2013-03-16 23:58:00,
2013-03-16 19:03:00,28.5,21.0,30.01,West,278,7.0,9.0,73,0.00,,SKC,0.00,0.00,VWS V14.01,2013-03-17 00:03:00,
2013-03-16 19:08:00,28.3,20.4,30.01,WNW,296,6.0,12.0,72,0.00,,SKC,0.00,0.00,VWS V14.01,2013-03-17 00:08:00,
2013-03-16 19:13:00,28.2,20.4,30.01,WNW,303,5.0,9.0,72,0.00,,SKC,0.00,0.00,VWS V14.01,2013-03-17 00:13:00,
2013-03-16 19:18:00,28.1,20.6,30.01,West,281,5.0,9.0,73,0.00,,SKC,0.00,0.00,VWS V14.01,2013-03-17 00:18:00,
2013-03-16 19:23:00,28.0,20.2,30.01,West,268,5.0,9.0,72,0.00,,SKC,0.00,0.00,VWS V14.01,2013-03-17 00:23:00,
2013-03-16 19:28:00,27.9,20.4,30.01,WNW,290,6.0,9.0,73,0.00,,SKC,0.00,0.00,VWS V14.01,2013-03-17 00:28:00,
2013-03-16 19:33:00,27.9,20.1,30.01,West,269,6.0,12.0,72,0.00,,SKC,0.00,0.00,VWS V14.01,2013-03-17 00:33:00,
2013-03-16 19:38:00,27.9,20.1,30.01,WNW,301,8.0,12.0,72,0.00,,SKC,0.00,0.00,VWS V14.01,2013-03-17 00:38:00,
2013-03-16 19:43:00,27.9,20.1,30.02,West,279,4.0,7.0,72,0.00,,SKC,0.00,0.00,VWS V14.01,2013-03-17 00:43:00,
2013-03-16 19:48:00,27.9,19.7,30.02,West,277,10.0,10.0,71,0.00,,SKC,0.00,0.00,VWS V14.01,2013-03-17 00:48:00,
2013-03-16 19:53:00,27.8,19.6,30.02,WNW,286,5.0,8.0,71,0.00,,SKC,0.00,0.00,VWS V14.01,2013-03-17 00:53:00,
2013-03-16 19:58:00,27.9,19.7,30.02,West,279,6.0,8.0,71,0.00,,SKC,0.00,0.00,VWS V14.01,2013-03-17 00:58:00,
2013-03-16 20:04:00,27.9,19.7,30.02,West,267,5.0,8.0,71,0.00,,SKC,0.00,0.00,VWS V14.01,2013-03-17 01:04:00,
2013-03-16 20:09:00,27.8,19.6,30.02,West,265,7.0,8.0,71,0.00,,SKC,0.00,0.00,VWS V14.01,2013-03-17 01:09:00,
2013-03-16 20:14:00,27.8,19.6,30.02,West,264,4.0,6.0,71,0.00,,SKC,0.00,0.00,VWS V14.01,2013-03-17 01:14:00,
2013-03-16 20:19:00,27.8,19.6,30.03,West,264,4.0,6.0,71,0.00,,SKC,0.00,0.00,VWS V14.01,2013-03-17 01:19:00,
2013-03-16 20:24:00,27.8,19.6,30.03,West,264,4.0,4.0,71,0.00,,SKC,0.00,0.00,VWS V14.01,2013-03-17 01:24:00,
2013-03-16 20:29:00,27.8,19.6,30.03,West,264,4.0,4.0,71,0.00,,SKC,0.00,0.00,VWS V14.01,2013-03-17 01:29:00,
2013-03-16 20:34:00,27.8,19.6,30.03,West,264,4.0,4.0,71,0.00,,SKC,0.00,0.00,VWS V14.01,2013-03-17 01:34:00,
2013-03-16 20:39:00,27.8,19.6,30.04,West,264,4.0,4.0,71,0.00,,SKC,0.00,0.00,VWS V14.01,2013-03-17 01:39:00,
2013-03-16 20:44:00,27.7,20.2,30.04,West,271,3.0,6.0,73,0.00,,SKC,0.00,0.00,VWS V14.01,2013-03-17 01:44:00,
2013-03-16 20:49:00,27.7,20.2,30.04,West,271,3.0,6.0,73,0.00,,SKC,0.00,0.00,VWS V14.01,2013-03-17 01:49:00,
2013-03-16 20:54:00,27.7,20.5,30.05,West,271,3.0,5.0,74,0.00,,SKC,0.00,0.00,VWS V14.01,2013-03-17 01:54:00,
2013-03-16 20:59:00,27.7,20.2,30.05,West,271,3.0,7.0,73,0.00,,SKC,0.00,0.00,VWS V14.01,2013-03-17 01:59:00,
2013-03-16 21:04:00,27.8,20.6,30.05,West,271,3.0,4.0,74,0.00,,SKC,0.00,0.00,VWS V14.01,2013-03-17 02:04:00,
2013-03-16 21:09:00,27.8,20.3,30.05,West,271,4.0,5.0,73,0.00,,SKC,0.00,0.00,VWS V14.01,2013-03-17 02:09:00,
2013-03-16 21:14:00,27.9,20.7,30.05,West,271,3.0,5.0,74,0.00,,SKC,0.00,0.00,VWS V14.01,2013-03-17 02:14:00,
2013-03-16 21:19:00,27.9,20.4,30.06,West,263,8.0,8.0,73,0.00,,SKC,0.00,0.00,VWS V14.01,2013-03-17 02:19:00,
2013-03-16 21:24:00,28.0,20.5,30.06,West,269,4.0,8.0,73,0.00,,SKC,0.00,0.00,VWS V14.01,2013-03-17 02:24:00,
2013-03-16 21:29:00,28.1,20.6,30.05,West,268,3.0,8.0,73,0.00,,SKC,0.00,0.00,VWS V14.01,2013-03-17 02:29:00,
2013-03-16 21:34:00,28.1,20.6,30.06,West,266,6.0,7.0,73,0.00,,SKC,0.00,0.00,VWS V14.01,2013-03-17 02:34:00,
2013-03-16 21:39:00,28.2,20.7,30.06,West,259,4.0,7.0,73,0.00,,SKC,0.00,0.00,VWS V14.01,2013-03-17 02:39:00,
2013-03-16 21:44:00,28.2,20.7,30.05,West,271,8.0,10.0,73,0.00,,SKC,0.00,0.00,VWS V14.01,2013-03-17 02:44:00,
2013-03-16 21:49:00,28.3,20.4,30.06,WNW,290,5.0,10.0,72,0.00,,SKC,0.00,0.00,VWS V14.01,2013-03-17 02:49:00,
2013-03-16 21:54:00,28.4,20.5,30.06,West,268,7.0,10.0,72,0.00,,SKC,0.00,0.00,VWS V14.01,2013-03-17 02:54:00,
2013-03-16 21:59:00,28.4,20.5,30.06,West,275,3.0,10.0,72,0.00,,SKC,0.00,0.00,VWS V14.01,2013-03-17 02:59:00,
2013-03-16 22:04:00,28.4,20.9,30.06,West,275,4.0,6.0,73,0.00,,SKC,0.00,0.00,VWS V14.01,2013-03-17 03:04:00,
2013-03-16 22:09:00,28.4,20.9,30.06,West,281,6.0,8.0,73,0.00,,SKC,0.00,0.00,VWS V14.01,2013-03-17 03:09:00,
2013-03-16 22:14:00,28.4,20.9,30.06,WNW,288,5.0,9.0,73,0.00,,SKC,0.00,0.00,VWS V14.01,2013-03-17 03:14:00,
2013-03-16 22:19:00,28.4,20.5,30.06,WNW,285,4.0,9.0,72,0.00,,SKC,0.00,0.00,VWS V14.01,2013-03-17 03:19:00,
2013-03-16 22:24:00,28.4,20.9,30.06,WNW,284,2.0,6.0,73,0.00,,SKC,0.00,0.00,VWS V14.01,2013-03-17 03:24:00,
2013-03-16 22:29:00,28.4,20.9,30.06,West,267,7.0,8.0,73,0.00,,SKC,0.00,0.00,VWS V14.01,2013-03-17 03:29:00,
2013-03-16 22:34:00,28.4,20.9,30.07,West,261,6.0,8.0,73,0.00,,SKC,0.00,0.00,VWS V14.01,2013-03-17 03:34:00,
2013-03-16 22:39:00,28.4,20.9,30.07,WNW,298,6.0,9.0,73,0.00,,SKC,0.00,0.00,VWS V14.01,2013-03-17 03:39:00,
2013-03-16 22:44:00,28.4,20.9,30.07,WNW,290,4.0,8.0,73,0.00,,SKC,0.00,0.00,VWS V14.01,2013-03-17 03:44:00,
2013-03-16 22:49:00,28.5,21.0,30.07,WNW,287,5.0,8.0,73,0.00,,SKC,0.00,0.00,VWS V14.01,2013-03-17 03:49:00,
2013-03-16 22:54:00,28.5,21.0,30.07,WNW,284,5.0,7.0,73,0.00,,SKC,0.00,0.00,VWS V14.01,2013-03-17 03:54:00,
2013-03-16 22:59:00,28.5,21.0,30.07,NW,304,5.0,7.0,73,0.00,,SKC,0.00,0.00,VWS V14.01,2013-03-17 03:59:00,
2013-03-16 23:00:00,28.5,21.0,30.07,WNW,298,6.0,7.0,73,0.00,,SKC,0.00,0.00,VWS V14.01,2013-03-17 04:00:00,
2013-03-16 23:05:00,28.4,20.9,30.07,NW,306,2.0,8.0,73,0.00,,SKC,0.00,0.00,VWS V14.01,2013-03-17 04:05:00,
2013-03-16 23:10:00,28.4,20.9,30.08,WNW,288,8.0,11.0,73,0.00,,SKC,0.00,0.00,VWS V14.01,2013-03-17 04:10:00,
2013-03-16 23:15:00,28.4,20.2,30.08,NNW,336,7.0,13.0,71,0.00,,SKC,0.00,0.00,VWS V14.01,2013-03-17 04:15:00,
2013-03-16 23:20:00,28.3,19.8,30.08,NW,324,11.0,11.0,70,0.00,,SKC,0.00,0.00,VWS V14.01,2013-03-17 04:20:00,
2013-03-16 23:25:00,28.2,19.7,30.08,WNW,292,9.0,13.0,70,0.00,,SKC,0.00,0.00,VWS V14.01,2013-03-17 04:25:00,
2013-03-16 23:30:00,28.1,19.6,30.08,NW,310,12.0,12.0,70,0.00,,SKC,0.00,0.00,VWS V14.01,2013-03-17 04:30:00,
2013-03-16 23:35:00,28.1,19.9,30.08,NW,312,8.0,12.0,71,0.00,,SKC,0.00,0.00,VWS V14.01,2013-03-17 04:35:00,
2013-03-16 23:40:00,27.9,19.4,30.08,NW,314,11.0,11.0,70,0.00,,SKC,0.00,0.00,VWS V14.01,2013-03-17 04:40:00,
2013-03-16 23:45:00,27.8,19.3,30.08,NW,308,8.0,14.0,70,0.00,,SKC,0.00,0.00,VWS V14.01,2013-03-17 04:45:00,
2013-03-16 23:50:00,27.8,19.6,30.09,NW,319,5.0,8.0,71,0.00,,SKC,0.00,0.00,VWS V14.01,2013-03-17 04:50:00,
2013-03-16 23:55:00,27.7,19.5,30.09,NNW,342,7.0,13.0,71,0.00,,SKC,0.00,0.00,VWS V14.01,2013-03-17 04:55:00,